sensor_id;sensor_type;location;lat;lon;timestamp;pressure;altitude;pressure_sealevel;temperature;humidity
79534;BME280;68982;52.160;6.736;2024-01-10T00:02:24;102909.81;;;-5.30;70.97
79534;BME280;68982;52.160;6.736;2024-01-10T00:04:50;102919.34;;;-5.25;70.30
79534;BME280;68982;52.160;6.736;2024-01-10T00:07:15;102919.34;;;-5.25;70.24
79534;BME280;68982;52.160;6.736;2024-01-10T00:09:40;102922.34;;;-5.04;71.77
79534;BME280;68982;52.160;6.736;2024-01-10T00:12:06;102912.00;;;-5.12;70.80
79534;BME280;68982;52.160;6.736;2024-01-10T00:14:31;102920.97;;;-5.21;71.16
79534;BME280;68982;52.160;6.736;2024-01-10T00:16:57;102914.84;;;-5.21;71.25
79534;BME280;68982;52.160;6.736;2024-01-10T00:19:22;102903.72;;;-5.32;70.68
79534;BME280;68982;52.160;6.736;2024-01-10T00:21:48;102901.91;;;-5.30;72.22
79534;BME280;68982;52.160;6.736;2024-01-10T00:24:13;102896.34;;;-5.18;73.19
79534;BME280;68982;52.160;6.736;2024-01-10T00:26:38;102899.91;;;-5.21;71.53
79534;BME280;68982;52.160;6.736;2024-01-10T00:29:04;102892.91;;;-5.20;71.49
79534;BME280;68982;52.160;6.736;2024-01-10T00:31:29;102887.69;;;-5.22;70.62
79534;BME280;68982;52.160;6.736;2024-01-10T00:33:54;102891.31;;;-5.27;73.43
79534;BME280;68982;52.160;6.736;2024-01-10T00:36:20;102884.25;;;-5.25;71.92
79534;BME280;68982;52.160;6.736;2024-01-10T00:38:46;102877.28;;;-5.26;73.22
79534;BME280;68982;52.160;6.736;2024-01-10T00:41:11;102883.41;;;-5.26;72.90
79534;BME280;68982;52.160;6.736;2024-01-10T00:43:37;102826.47;;;-5.66;72.40
79534;BME280;68982;52.160;6.736;2024-01-10T00:46:03;102887.97;;;-5.34;71.29
79534;BME280;68982;52.160;6.736;2024-01-10T00:48:28;102882.75;;;-5.35;71.86
79534;BME280;68982;52.160;6.736;2024-01-10T00:50:53;102884.56;;;-5.37;72.04
79534;BME280;68982;52.160;6.736;2024-01-10T00:53:19;102888.25;;;-5.46;72.16
79534;BME280;68982;52.160;6.736;2024-01-10T00:55:44;102883.75;;;-5.41;72.63
79534;BME280;68982;52.160;6.736;2024-01-10T00:58:09;102869.72;;;-5.40;73.08
79534;BME280;68982;52.160;6.736;2024-01-10T01:00:35;102868.56;;;-5.28;72.90
79534;BME280;68982;52.160;6.736;2024-01-10T01:03:00;102874.03;;;-5.37;71.66
79534;BME280;68982;52.160;6.736;2024-01-10T01:05:25;102877.50;;;-5.35;73.89
79534;BME280;68982;52.160;6.736;2024-01-10T01:07:51;102869.72;;;-5.40;74.18
79534;BME280;68982;52.160;6.736;2024-01-10T01:10:16;102872.50;;;-5.48;73.20
79534;BME280;68982;52.160;6.736;2024-01-10T01:12:41;102869.97;;;-5.51;71.77
79534;BME280;68982;52.160;6.736;2024-01-10T01:15:07;102874.25;;;-5.47;74.02
79534;BME280;68982;52.160;6.736;2024-01-10T01:17:32;102876.94;;;-5.50;73.91
79534;BME280;68982;52.160;6.736;2024-01-10T01:19:59;102855.22;;;-5.58;73.71
79534;BME280;68982;52.160;6.736;2024-01-10T01:22:25;102873.72;;;-5.63;73.32
79534;BME280;68982;52.160;6.736;2024-01-10T01:24:50;102879.56;;;-5.50;73.83
79534;BME280;68982;52.160;6.736;2024-01-10T01:27:15;102875.97;;;-5.46;76.68
79534;BME280;68982;52.160;6.736;2024-01-10T01:29:40;102883.00;;;-5.46;75.06
79534;BME280;68982;52.160;6.736;2024-01-10T01:32:06;102888.41;;;-5.54;72.19
79534;BME280;68982;52.160;6.736;2024-01-10T01:34:31;102873.66;;;-5.59;73.06
79534;BME280;68982;52.160;6.736;2024-01-10T01:36:56;102871.97;;;-5.62;73.15
79534;BME280;68982;52.160;6.736;2024-01-10T01:39:22;102874.25;;;-5.47;75.44
79534;BME280;68982;52.160;6.736;2024-01-10T01:41:47;102881.25;;;-5.47;73.94
79534;BME280;68982;52.160;6.736;2024-01-10T01:44:13;102868.22;;;-5.52;73.17
79534;BME280;68982;52.160;6.736;2024-01-10T01:46:38;102864.19;;;-5.67;72.98
79534;BME280;68982;52.160;6.736;2024-01-10T01:49:06;102878.56;;;-5.44;75.69
79534;BME280;68982;52.160;6.736;2024-01-10T01:51:33;102870.22;;;-5.63;74.27
79534;BME280;68982;52.160;6.736;2024-01-10T01:54:00;102867.44;;;-5.55;74.29
79534;BME280;68982;52.160;6.736;2024-01-10T01:56:25;102842.44;;;-5.73;74.06
79534;BME280;68982;52.160;6.736;2024-01-10T01:58:51;102875.13;;;-5.48;75.83
79534;BME280;68982;52.160;6.736;2024-01-10T02:01:18;102873.34;;;-5.46;75.12
79534;BME280;68982;52.160;6.736;2024-01-10T02:03:47;102861.34;;;-5.57;76.02
79534;BME280;68982;52.160;6.736;2024-01-10T02:06:12;102860.09;;;-5.43;76.06
79534;BME280;68982;52.160;6.736;2024-01-10T02:08:37;102845.00;;;-5.72;73.70
79534;BME280;68982;52.160;6.736;2024-01-10T02:11:03;102844.16;;;-5.72;75.74
79534;BME280;68982;52.160;6.736;2024-01-10T02:13:30;102845.72;;;-5.65;75.77
79534;BME280;68982;52.160;6.736;2024-01-10T02:15:57;102834.22;;;-5.59;75.04
79534;BME280;68982;52.160;6.736;2024-01-10T02:18:23;102852.75;;;-5.66;75.20
79534;BME280;68982;52.160;6.736;2024-01-10T02:20:49;102853.78;;;-5.71;75.01
79534;BME280;68982;52.160;6.736;2024-01-10T02:23:15;102844.16;;;-5.74;74.66
79534;BME280;68982;52.160;6.736;2024-01-10T02:25:40;102838.75;;;-5.66;76.27
79534;BME280;68982;52.160;6.736;2024-01-10T02:28:06;102843.34;;;-5.76;75.33
79534;BME280;68982;52.160;6.736;2024-01-10T02:30:32;102835.47;;;-5.76;74.83
79534;BME280;68982;52.160;6.736;2024-01-10T02:32:57;102833.75;;;-5.78;74.92
79534;BME280;68982;52.160;6.736;2024-01-10T02:35:23;102832.94;;;-5.80;74.24
79534;BME280;68982;52.160;6.736;2024-01-10T02:37:48;102835.56;;;-5.80;75.09
79534;BME280;68982;52.160;6.736;2024-01-10T02:40:17;102823.47;;;-5.89;76.81
79534;BME280;68982;52.160;6.736;2024-01-10T02:42:43;102825.25;;;-5.90;75.77
79534;BME280;68982;52.160;6.736;2024-01-10T02:45:08;102836.56;;;-5.85;76.63
79534;BME280;68982;52.160;6.736;2024-01-10T02:47:34;102832.16;;;-5.84;74.26
79534;BME280;68982;52.160;6.736;2024-01-10T02:50:00;102825.88;;;-5.78;75.73
79534;BME280;68982;52.160;6.736;2024-01-10T02:52:25;102831.31;;;-5.86;75.05
79534;BME280;68982;52.160;6.736;2024-01-10T02:54:50;102805.44;;;-6.03;76.07
79534;BME280;68982;52.160;6.736;2024-01-10T02:57:16;102830.16;;;-5.73;79.19
79534;BME280;68982;52.160;6.736;2024-01-10T02:59:41;102828.81;;;-5.92;74.72
79534;BME280;68982;52.160;6.736;2024-01-10T03:02:06;102828.66;;;-5.85;76.43
79534;BME280;68982;52.160;6.736;2024-01-10T03:04:32;102830.34;;;-5.82;76.55
79534;BME280;68982;52.160;6.736;2024-01-10T03:06:57;102830.50;;;-5.90;75.69
79534;BME280;68982;52.160;6.736;2024-01-10T03:09:23;102825.22;;;-5.87;77.58
79534;BME280;68982;52.160;6.736;2024-01-10T03:11:49;102822.59;;;-5.87;77.51
79534;BME280;68982;52.160;6.736;2024-01-10T03:14:14;102825.25;;;-5.90;77.87
79534;BME280;68982;52.160;6.736;2024-01-10T03:16:39;102807.94;;;-5.97;76.56
79534;BME280;68982;52.160;6.736;2024-01-10T03:19:05;102832.09;;;-5.83;78.61
79534;BME280;68982;52.160;6.736;2024-01-10T03:21:30;102819.16;;;-5.90;77.41
79534;BME280;68982;52.160;6.736;2024-01-10T03:23:57;102818.47;;;-5.98;77.62
79534;BME280;68982;52.160;6.736;2024-01-10T03:26:23;102811.28;;;-5.92;77.18
79534;BME280;68982;52.160;6.736;2024-01-10T03:28:48;102806.81;;;-5.87;77.68
79534;BME280;68982;52.160;6.736;2024-01-10T03:31:14;102809.38;;;-5.84;78.83
79534;BME280;68982;52.160;6.736;2024-01-10T03:33:39;102800.72;;;-5.89;77.30
79534;BME280;68982;52.160;6.736;2024-01-10T03:36:06;102794.56;;;-5.88;77.22
79534;BME280;68982;52.160;6.736;2024-01-10T03:38:31;102798.81;;;-5.82;79.33
79534;BME280;68982;52.160;6.736;2024-01-10T03:40:57;102792.78;;;-5.87;78.63
79534;BME280;68982;52.160;6.736;2024-01-10T03:43:22;102798.97;;;-5.90;78.49
79534;BME280;68982;52.160;6.736;2024-01-10T03:45:47;102783.13;;;-5.85;79.27
79534;BME280;68982;52.160;6.736;2024-01-10T03:48:12;102777.84;;;-5.85;79.21
79534;BME280;68982;52.160;6.736;2024-01-10T03:50:38;102779.75;;;-5.92;77.54
79534;BME280;68982;52.160;6.736;2024-01-10T03:53:03;102784.78;;;-5.81;78.88
79534;BME280;68982;52.160;6.736;2024-01-10T03:55:29;102790.06;;;-5.83;79.03
79534;BME280;68982;52.160;6.736;2024-01-10T03:57:55;102796.13;;;-5.79;79.85
79534;BME280;68982;52.160;6.736;2024-01-10T04:00:21;102791.91;;;-5.86;78.05
79534;BME280;68982;52.160;6.736;2024-01-10T04:02:46;102801.69;;;-5.93;79.06
79534;BME280;68982;52.160;6.736;2024-01-10T04:05:12;102786.09;;;-5.99;78.25
79534;BME280;68982;52.160;6.736;2024-01-10T04:07:41;102768.41;;;-5.94;78.77
79534;BME280;68982;52.160;6.736;2024-01-10T04:10:10;102791.44;;;-6.02;77.43
79534;BME280;68982;52.160;6.736;2024-01-10T04:12:36;102792.28;;;-6.01;78.29
79534;BME280;68982;52.160;6.736;2024-01-10T04:15:03;102796.31;;;-5.87;80.12
79534;BME280;68982;52.160;6.736;2024-01-10T04:17:29;102797.47;;;-5.98;78.13
79534;BME280;68982;52.160;6.736;2024-01-10T04:19:54;102792.16;;;-5.95;77.81
79534;BME280;68982;52.160;6.736;2024-01-10T04:22:19;102786.69;;;-5.88;78.89
79534;BME280;68982;52.160;6.736;2024-01-10T04:24:45;102782.28;;;-5.87;79.84
79534;BME280;68982;52.160;6.736;2024-01-10T04:27:10;102780.66;;;-5.91;77.57
79534;BME280;68982;52.160;6.736;2024-01-10T04:29:36;102772.56;;;-5.82;79.08
79534;BME280;68982;52.160;6.736;2024-01-10T04:32:01;102793.50;;;-5.80;80.18
79534;BME280;68982;52.160;6.736;2024-01-10T04:34:26;102785.97;;;-5.94;79.98
79534;BME280;68982;52.160;6.736;2024-01-10T04:36:52;102791.47;;;-6.05;77.88
79534;BME280;68982;52.160;6.736;2024-01-10T04:39:17;102793.13;;;-5.99;79.16
79534;BME280;68982;52.160;6.736;2024-01-10T04:41:42;102800.06;;;-5.97;79.10
79534;BME280;68982;52.160;6.736;2024-01-10T04:44:08;102794.91;;;-6.01;79.01
79534;BME280;68982;52.160;6.736;2024-01-10T04:46:33;102800.09;;;-5.98;79.54
79534;BME280;68982;52.160;6.736;2024-01-10T04:48:58;102737.81;;;-6.34;79.64
79534;BME280;68982;52.160;6.736;2024-01-10T04:51:24;102796.41;;;-5.91;80.31
79534;BME280;68982;52.160;6.736;2024-01-10T04:53:49;102787.88;;;-6.01;78.86
79534;BME280;68982;52.160;6.736;2024-01-10T04:56:14;102793.09;;;-5.98;78.68
79534;BME280;68982;52.160;6.736;2024-01-10T04:58:40;102786.06;;;-5.97;79.04
79534;BME280;68982;52.160;6.736;2024-01-10T05:01:05;102784.13;;;-5.91;79.32
79534;BME280;68982;52.160;6.736;2024-01-10T05:03:31;102791.34;;;-5.99;78.10
79534;BME280;68982;52.160;6.736;2024-01-10T05:05:56;102780.00;;;-6.01;79.30
79534;BME280;68982;52.160;6.736;2024-01-10T05:08:21;102772.97;;;-5.99;78.64
79534;BME280;68982;52.160;6.736;2024-01-10T05:10:47;102778.88;;;-5.91;78.62
79534;BME280;68982;52.160;6.736;2024-01-10T05:13:12;102777.94;;;-5.88;80.93
79534;BME280;68982;52.160;6.736;2024-01-10T05:15:38;102785.25;;;-6.01;77.01
79534;BME280;68982;52.160;6.736;2024-01-10T05:18:03;102766.81;;;-5.98;78.00
79534;BME280;68982;52.160;6.736;2024-01-10T05:20:29;102772.09;;;-5.99;78.71
79534;BME280;68982;52.160;6.736;2024-01-10T05:22:54;102759.00;;;-6.01;78.12
79534;BME280;68982;52.160;6.736;2024-01-10T05:25:23;102766.50;;;-5.86;78.33
79534;BME280;68982;52.160;6.736;2024-01-10T05:27:49;102752.88;;;-6.01;77.34
79534;BME280;68982;52.160;6.736;2024-01-10T05:30:14;102758.97;;;-5.99;77.76
79534;BME280;68982;52.160;6.736;2024-01-10T05:32:39;102754.47;;;-5.94;78.29
79534;BME280;68982;52.160;6.736;2024-01-10T05:35:06;102747.28;;;-5.89;79.11
79534;BME280;68982;52.160;6.736;2024-01-10T05:37:31;102756.81;;;-5.84;77.20
79534;BME280;68982;52.160;6.736;2024-01-10T05:39:56;102747.28;;;-5.88;77.65
79534;BME280;68982;52.160;6.736;2024-01-10T05:42:22;102756.22;;;-5.95;77.13
79534;BME280;68982;52.160;6.736;2024-01-10T05:44:47;102748.22;;;-5.92;77.42
79534;BME280;68982;52.160;6.736;2024-01-10T05:47:12;102752.25;;;-5.75;79.63
79534;BME280;68982;52.160;6.736;2024-01-10T05:49:38;102743.88;;;-5.91;77.96
79534;BME280;68982;52.160;6.736;2024-01-10T05:52:04;102739.75;;;-6.01;77.28
79534;BME280;68982;52.160;6.736;2024-01-10T05:54:29;102749.03;;;-5.88;78.40
79534;BME280;68982;52.160;6.736;2024-01-10T05:56:54;102757.03;;;-5.93;78.44
79534;BME280;68982;52.160;6.736;2024-01-10T05:59:20;102755.13;;;-5.86;78.05
79534;BME280;68982;52.160;6.736;2024-01-10T06:01:45;102733.38;;;-5.91;80.21
79534;BME280;68982;52.160;6.736;2024-01-10T06:04:10;102743.88;;;-5.91;78.99
79534;BME280;68982;52.160;6.736;2024-01-10T06:06:36;102736.16;;;-5.97;77.81
79534;BME280;68982;52.160;6.736;2024-01-10T06:09:01;102752.03;;;-6.03;76.39
79534;BME280;68982;52.160;6.736;2024-01-10T06:11:27;102755.41;;;-5.97;77.65
79534;BME280;68982;52.160;6.736;2024-01-10T06:13:54;102759.56;;;-5.90;76.72
79534;BME280;68982;52.160;6.736;2024-01-10T06:16:20;102756.94;;;-5.90;77.29
79534;BME280;68982;52.160;6.736;2024-01-10T06:18:45;102753.88;;;-6.07;76.35
79534;BME280;68982;52.160;6.736;2024-01-10T06:21:10;102751.22;;;-6.06;76.17
79534;BME280;68982;52.160;6.736;2024-01-10T06:23:36;102752.06;;;-6.05;77.57
79534;BME280;68982;52.160;6.736;2024-01-10T06:26:01;102732.47;;;-5.92;78.38
79534;BME280;68982;52.160;6.736;2024-01-10T06:28:26;102740.56;;;-5.98;77.29
79534;BME280;68982;52.160;6.736;2024-01-10T06:30:52;102737.94;;;-5.98;76.63
79534;BME280;68982;52.160;6.736;2024-01-10T06:33:17;102723.25;;;-6.08;78.18
79534;BME280;68982;52.160;6.736;2024-01-10T06:35:45;102728.50;;;-6.07;76.96
79534;BME280;68982;52.160;6.736;2024-01-10T06:38:10;102745.72;;;-5.95;77.32
79534;BME280;68982;52.160;6.736;2024-01-10T06:40:36;102751.94;;;-5.99;77.84
79534;BME280;68982;52.160;6.736;2024-01-10T06:43:02;102747.66;;;-6.03;76.68
79534;BME280;68982;52.160;6.736;2024-01-10T06:45:28;102747.66;;;-6.03;77.11
79534;BME280;68982;52.160;6.736;2024-01-10T06:47:53;102748.34;;;-5.95;77.12
79534;BME280;68982;52.160;6.736;2024-01-10T06:50:18;102753.81;;;-6.04;75.98
79534;BME280;68982;52.160;6.736;2024-01-10T06:52:45;102741.16;;;-6.26;75.84
79534;BME280;68982;52.160;6.736;2024-01-10T06:55:10;102723.13;;;-6.42;75.71
79534;BME280;68982;52.160;6.736;2024-01-10T06:57:36;102737.88;;;-6.35;74.89
79534;BME280;68982;52.160;6.736;2024-01-10T07:00:01;102759.81;;;-6.38;76.12
79534;BME280;68982;52.160;6.736;2024-01-10T07:02:31;102753.72;;;-6.40;76.09
79534;BME280;68982;52.160;6.736;2024-01-10T07:04:57;102765.06;;;-6.39;76.66
79534;BME280;68982;52.160;6.736;2024-01-10T07:07:22;102759.94;;;-6.44;76.40
79534;BME280;68982;52.160;6.736;2024-01-10T07:09:48;102758.13;;;-6.42;75.67
79534;BME280;68982;52.160;6.736;2024-01-10T07:12:13;102745.22;;;-6.51;76.18
79534;BME280;68982;52.160;6.736;2024-01-10T07:14:39;102750.25;;;-6.42;76.72
79534;BME280;68982;52.160;6.736;2024-01-10T07:17:04;102751.19;;;-6.44;76.58
79534;BME280;68982;52.160;6.736;2024-01-10T07:19:30;102744.47;;;-6.58;76.22
79534;BME280;68982;52.160;6.736;2024-01-10T07:21:56;102761.94;;;-6.57;76.47
79534;BME280;68982;52.160;6.736;2024-01-10T07:24:21;102773.16;;;-6.50;75.72
79534;BME280;68982;52.160;6.736;2024-01-10T07:26:47;102774.03;;;-6.50;76.35
79534;BME280;68982;52.160;6.736;2024-01-10T07:29:12;102772.25;;;-6.48;76.38
79534;BME280;68982;52.160;6.736;2024-01-10T07:31:38;102773.00;;;-6.42;75.42
79534;BME280;68982;52.160;6.736;2024-01-10T07:34:04;102776.59;;;-6.47;75.24
79534;BME280;68982;52.160;6.736;2024-01-10T07:36:32;102794.06;;;-6.44;74.79
79534;BME280;68982;52.160;6.736;2024-01-10T07:39:01;102787.09;;;-6.47;74.92
79534;BME280;68982;52.160;6.736;2024-01-10T07:41:26;102787.97;;;-6.46;74.83
79534;BME280;68982;52.160;6.736;2024-01-10T07:43:52;102788.75;;;-6.42;74.86
79534;BME280;68982;52.160;6.736;2024-01-10T07:46:17;102787.00;;;-6.42;74.56
79534;BME280;68982;52.160;6.736;2024-01-10T07:48:43;102785.47;;;-6.54;74.70
79534;BME280;68982;52.160;6.736;2024-01-10T07:51:08;102789.84;;;-6.53;74.28
79534;BME280;68982;52.160;6.736;2024-01-10T07:53:33;102793.34;;;-6.52;74.21
79534;BME280;68982;52.160;6.736;2024-01-10T07:55:59;102802.81;;;-6.45;74.89
79534;BME280;68982;52.160;6.736;2024-01-10T07:58:24;102799.31;;;-6.44;74.66
79534;BME280;68982;52.160;6.736;2024-01-10T08:00:50;102794.88;;;-6.42;74.18
79534;BME280;68982;52.160;6.736;2024-01-10T08:03:16;102795.75;;;-6.41;75.16
79534;BME280;68982;52.160;6.736;2024-01-10T08:05:41;102782.81;;;-6.51;74.89
79534;BME280;68982;52.160;6.736;2024-01-10T08:08:07;102787.78;;;-6.38;74.78
79534;BME280;68982;52.160;6.736;2024-01-10T08:10:32;102782.50;;;-6.35;74.23
79534;BME280;68982;52.160;6.736;2024-01-10T08:12:58;102780.72;;;-6.33;74.36
79534;BME280;68982;52.160;6.736;2024-01-10T08:15:23;102770.31;;;-6.38;74.31
79534;BME280;68982;52.160;6.736;2024-01-10T08:17:48;102768.38;;;-6.30;74.40
79534;BME280;68982;52.160;6.736;2024-01-10T08:20:14;102771.00;;;-6.30;73.57
79534;BME280;68982;52.160;6.736;2024-01-10T08:22:44;102781.38;;;-6.23;73.81
79534;BME280;68982;52.160;6.736;2024-01-10T08:25:10;102779.56;;;-6.20;73.34
79534;BME280;68982;52.160;6.736;2024-01-10T08:27:35;102783.09;;;-6.22;73.93
79534;BME280;68982;52.160;6.736;2024-01-10T08:30:00;102778.66;;;-6.19;74.06
79534;BME280;68982;52.160;6.736;2024-01-10T08:32:26;102775.91;;;-6.14;72.58
79534;BME280;68982;52.160;6.736;2024-01-10T08:34:51;102776.59;;;-6.05;72.51
79534;BME280;68982;52.160;6.736;2024-01-10T08:37:17;102776.66;;;-6.09;72.25
79534;BME280;68982;52.160;6.736;2024-01-10T08:39:43;102789.75;;;-6.06;71.89
79534;BME280;68982;52.160;6.736;2024-01-10T08:42:09;102771.41;;;-6.09;70.79
79534;BME280;68982;52.160;6.736;2024-01-10T08:44:35;102766.88;;;-6.01;71.02
79534;BME280;68982;52.160;6.736;2024-01-10T08:47:00;102771.13;;;-5.95;70.79
79534;BME280;68982;52.160;6.736;2024-01-10T08:49:26;102785.94;;;-5.93;69.83
79534;BME280;68982;52.160;6.736;2024-01-10T08:51:51;102784.13;;;-5.91;70.39
79534;BME280;68982;52.160;6.736;2024-01-10T08:54:18;102766.75;;;-5.95;70.02
79534;BME280;68982;52.160;6.736;2024-01-10T08:56:47;102766.50;;;-5.86;70.47
79534;BME280;68982;52.160;6.736;2024-01-10T08:59:13;102775.91;;;-5.75;69.45
79534;BME280;68982;52.160;6.736;2024-01-10T09:01:38;102776.78;;;-5.76;69.88
79534;BME280;68982;52.160;6.736;2024-01-10T09:04:04;102773.81;;;-5.63;69.35
79534;BME280;68982;52.160;6.736;2024-01-10T09:06:31;102778.00;;;-5.54;68.37
79534;BME280;68982;52.160;6.736;2024-01-10T09:08:56;102773.44;;;-5.46;69.14
79534;BME280;68982;52.160;6.736;2024-01-10T09:11:22;102773.31;;;-5.41;68.59
79534;BME280;68982;52.160;6.736;2024-01-10T09:13:47;102774.69;;;-5.25;67.40
79534;BME280;68982;52.160;6.736;2024-01-10T09:16:13;102770.09;;;-5.18;67.96
79534;BME280;68982;52.160;6.736;2024-01-10T09:18:38;102769.06;;;-5.11;66.16
79534;BME280;68982;52.160;6.736;2024-01-10T09:21:05;102748.66;;;-5.03;67.09
79534;BME280;68982;52.160;6.736;2024-01-10T09:23:30;102763.97;;;-4.84;67.07
79534;BME280;68982;52.160;6.736;2024-01-10T09:25:55;102766.31;;;-4.73;65.13
79534;BME280;68982;52.160;6.736;2024-01-10T09:28:21;102767.44;;;-4.51;64.98
79534;BME280;68982;52.160;6.736;2024-01-10T09:30:46;102755.97;;;-4.50;64.50
79534;BME280;68982;52.160;6.736;2024-01-10T09:33:12;102765.41;;;-4.43;64.46
79534;BME280;68982;52.160;6.736;2024-01-10T09:35:37;102757.34;;;-4.37;63.12
79534;BME280;68982;52.160;6.736;2024-01-10T09:38:03;102752.94;;;-4.36;62.87
79534;BME280;68982;52.160;6.736;2024-01-10T09:40:29;102763.03;;;-4.21;63.77
79534;BME280;68982;52.160;6.736;2024-01-10T09:42:55;102769.56;;;-4.04;62.67
79534;BME280;68982;52.160;6.736;2024-01-10T09:45:21;102780.78;;;-3.98;61.49
79534;BME280;68982;52.160;6.736;2024-01-10T09:47:49;102775.16;;;-3.87;61.69
79534;BME280;68982;52.160;6.736;2024-01-10T09:50:17;102771.00;;;-3.94;61.79
79534;BME280;68982;52.160;6.736;2024-01-10T09:52:52;102778.88;;;-3.64;60.99
79534;BME280;68982;52.160;6.736;2024-01-10T09:55:21;102786.16;;;-3.44;60.54
79534;BME280;68982;52.160;6.736;2024-01-10T09:57:47;102781.38;;;-3.33;60.00
79534;BME280;68982;52.160;6.736;2024-01-10T10:00:15;102781.06;;;-3.24;59.04
79534;BME280;68982;52.160;6.736;2024-01-10T10:02:41;102771.78;;;-3.09;58.82
79534;BME280;68982;52.160;6.736;2024-01-10T10:05:08;102775.97;;;-3.03;58.46
79534;BME280;68982;52.160;6.736;2024-01-10T10:07:44;102778.97;;;-3.14;59.04
79534;BME280;68982;52.160;6.736;2024-01-10T10:10:10;102766.78;;;-3.18;59.32
79534;BME280;68982;52.160;6.736;2024-01-10T10:15:18;102775.28;;;-3.35;59.52
79534;BME280;68982;52.160;6.736;2024-01-10T10:17:45;102765.63;;;-3.36;57.82
79534;BME280;68982;52.160;6.736;2024-01-10T10:20:21;102767.69;;;-3.18;59.02
79534;BME280;68982;52.160;6.736;2024-01-10T10:23:00;102753.41;;;-3.12;57.53
79534;BME280;68982;52.160;6.736;2024-01-10T10:25:35;102758.03;;;-2.94;56.49
79534;BME280;68982;52.160;6.736;2024-01-10T10:28:04;102749.91;;;-2.62;56.99
79534;BME280;68982;52.160;6.736;2024-01-10T10:30:33;102757.66;;;-2.58;55.97
79534;BME280;68982;52.160;6.736;2024-01-10T10:32:59;102741.72;;;-2.56;55.93
79534;BME280;68982;52.160;6.736;2024-01-10T10:35:24;102751.94;;;-2.23;55.26
79534;BME280;68982;52.160;6.736;2024-01-10T10:37:52;102752.81;;;-2.23;55.91
79534;BME280;68982;52.160;6.736;2024-01-10T10:40:18;102749.63;;;-2.31;55.43
79534;BME280;68982;52.160;6.736;2024-01-10T10:42:45;102753.63;;;-2.21;55.05
79534;BME280;68982;52.160;6.736;2024-01-10T10:45:18;102731.69;;;-2.01;54.55
79534;BME280;68982;52.160;6.736;2024-01-10T10:47:45;102739.34;;;-1.93;52.92
79534;BME280;68982;52.160;6.736;2024-01-10T10:50:22;102739.81;;;-1.61;52.09
79534;BME280;68982;52.160;6.736;2024-01-10T10:52:48;102741.09;;;-1.29;51.89
79534;BME280;68982;52.160;6.736;2024-01-10T10:55:18;102736.44;;;-0.63;49.99
79534;BME280;68982;52.160;6.736;2024-01-10T10:57:45;102744.16;;;0.01;48.30
79534;BME280;68982;52.160;6.736;2024-01-10T11:00:14;102745.22;;;0.87;45.89
79534;BME280;68982;52.160;6.736;2024-01-10T11:02:41;102736.44;;;1.19;44.22
79534;BME280;68982;52.160;6.736;2024-01-10T11:05:07;102739.09;;;1.69;43.79
79534;BME280;68982;52.160;6.736;2024-01-10T11:07:43;102734.84;;;1.82;42.55
79534;BME280;68982;52.160;6.736;2024-01-10T11:10:21;102729.09;;;2.05;41.92
79534;BME280;68982;52.160;6.736;2024-01-10T11:15:54;102750.75;;;2.61;40.72
79534;BME280;68982;52.160;6.736;2024-01-10T11:18:56;102736.50;;;2.46;41.22
79534;BME280;68982;52.160;6.736;2024-01-10T11:24:05;102730.91;;;1.89;41.27
79534;BME280;68982;52.160;6.736;2024-01-10T11:26:32;102729.78;;;1.77;41.99
79534;BME280;68982;52.160;6.736;2024-01-10T11:28:58;102741.19;;;1.79;41.67
79534;BME280;68982;52.160;6.736;2024-01-10T11:31:30;102723.88;;;1.39;42.20
79534;BME280;68982;52.160;6.736;2024-01-10T11:34:02;102732.97;;;1.35;42.63
79534;BME280;68982;52.160;6.736;2024-01-10T11:36:28;102726.25;;;1.93;43.00
79534;BME280;68982;52.160;6.736;2024-01-10T11:39:03;102730.03;;;1.89;41.72
79534;BME280;68982;52.160;6.736;2024-01-10T11:41:35;102737.75;;;1.93;41.21
79534;BME280;68982;52.160;6.736;2024-01-10T11:46:39;102726.28;;;2.55;40.51
79534;BME280;68982;52.160;6.736;2024-01-10T11:49:12;102717.16;;;3.03;39.52
79534;BME280;68982;52.160;6.736;2024-01-10T11:51:39;102682.25;;;2.49;39.71
79534;BME280;68982;52.160;6.736;2024-01-10T11:54:06;102715.91;;;2.50;39.85
79534;BME280;68982;52.160;6.736;2024-01-10T11:56:39;102707.66;;;2.69;39.35
79534;BME280;68982;52.160;6.736;2024-01-10T11:59:10;102705.25;;;2.80;39.36
79534;BME280;68982;52.160;6.736;2024-01-10T12:01:40;102712.13;;;2.99;40.47
79534;BME280;68982;52.160;6.736;2024-01-10T12:04:07;102692.91;;;3.08;39.27
79534;BME280;68982;52.160;6.736;2024-01-10T12:06:34;102704.97;;;2.55;39.30
79534;BME280;68982;52.160;6.736;2024-01-10T12:09:01;102706.59;;;3.02;39.06
79534;BME280;68982;52.160;6.736;2024-01-10T12:11:33;102718.13;;;3.31;39.18
79534;BME280;68982;52.160;6.736;2024-01-10T12:13:59;102706.09;;;4.08;38.15
79534;BME280;68982;52.160;6.736;2024-01-10T12:16:25;102717.59;;;4.23;38.48
79534;BME280;68982;52.160;6.736;2024-01-10T12:18:50;102712.50;;;3.79;39.09
79534;BME280;68982;52.160;6.736;2024-01-10T12:21:16;102709.19;;;3.61;38.92
79534;BME280;68982;52.160;6.736;2024-01-10T12:23:43;102707.41;;;3.88;37.94
79534;BME280;68982;52.160;6.736;2024-01-10T12:26:10;102711.16;;;4.13;37.74
79534;BME280;68982;52.160;6.736;2024-01-10T12:28:39;102710.63;;;3.23;38.97
79534;BME280;68982;52.160;6.736;2024-01-10T12:31:05;102696.88;;;3.15;39.56
79534;BME280;68982;52.160;6.736;2024-01-10T12:33:32;102697.06;;;1.91;41.78
79534;BME280;68982;52.160;6.736;2024-01-10T12:36:07;102709.66;;;2.65;40.71
79534;BME280;68982;52.160;6.736;2024-01-10T12:38:34;102651.50;;;2.43;40.43
79534;BME280;68982;52.160;6.736;2024-01-10T12:41:00;102674.91;;;2.22;42.09
79534;BME280;68982;52.160;6.736;2024-01-10T12:43:26;102692.13;;;1.69;43.60
79534;BME280;68982;52.160;6.736;2024-01-10T12:46:04;102696.31;;;1.24;44.55
79534;BME280;68982;52.160;6.736;2024-01-10T12:48:30;102696.91;;;1.62;43.19
79534;BME280;68982;52.160;6.736;2024-01-10T12:50:57;102684.84;;;1.23;44.14
79534;BME280;68982;52.160;6.736;2024-01-10T12:53:22;102690.59;;;0.98;44.96
79534;BME280;68982;52.160;6.736;2024-01-10T12:55:48;102692.44;;;0.80;45.37
79534;BME280;68982;52.160;6.736;2024-01-10T12:58:13;102690.47;;;0.67;45.75
79534;BME280;68982;52.160;6.736;2024-01-10T13:00:38;102666.38;;;0.17;46.34